Felix-Klein-Gymnasium, Gttingen, 150m NN
Wetterdaten: aktuell Donnerstag, 19.10.2017 01:45
Datum Zeit Temp. A. Feuchte A. Luftdruck Regen Wind Richtung Richtung Sonnenschein Taupunkt Windchill Windben
19.10.2017 01:45 8,7 C 95 % 1012,1 hPa 0,0 mm 0,0 km/h (0 Bft) N-NO 25 0 min 7,9 C 8,7 C 0,0 km/h (0 Bft)
19.10.2017 01:30 8,8 C 94 % 1012,1 hPa 0,0 mm 0,0 km/h (0 Bft) N-NO 25 0 min 7,9 C 8,8 C 1,6 km/h (1 Bft)
19.10.2017 01:15 8,9 C 94 % 1012,0 hPa 0,0 mm 0,1 km/h (0 Bft) N-NO 25 0 min 8,0 C 8,9 C 3,2 km/h (1 Bft)
19.10.2017 01:00 9,3 C 93 % 1012,0 hPa 0,0 mm 0,0 km/h (0 Bft) N-NO 25 0 min 8,2 C 9,3 C 0,0 km/h (0 Bft)
19.10.2017 00:45 9,7 C 94 % 1011,8 hPa 0,0 mm 0,0 km/h (0 Bft) N-NO 25 0 min 8,8 C 9,7 C 0,0 km/h (0 Bft)
19.10.2017 00:30 9,8 C 93 % 1011,8 hPa 0,0 mm 0,0 km/h (0 Bft) N-NO 25 0 min 8,7 C 9,8 C 0,0 km/h (0 Bft)
19.10.2017 00:14 10,1 C 93 % 1011,8 hPa 0,0 mm 0,0 km/h (0 Bft) N-NO 25 0 min 9,0 C 10,1 C 0,0 km/h (0 Bft)
18.10.2017 23:59 10,2 C 94 % 1011,9 hPa 0,0 mm 0,0 km/h (0 Bft) N-NO 25 0 min 9,3 C 10,2 C 0,0 km/h (0 Bft)
18.10.2017 23:45 10,3 C 93 % 1011,8 hPa 0,0 mm 0,0 km/h (0 Bft) NW 320 0 min 9,2 C 10,3 C 0,0 km/h (0 Bft)
18.10.2017 23:30 10,3 C 93 % 1011,9 hPa 0,0 mm 0,0 km/h (0 Bft) N-NO 27 0 min 9,2 C 10,3 C 3,2 km/h (1 Bft)
18.10.2017 23:15 10,6 C 93 % 1012,0 hPa 0,0 mm 0,0 km/h (0 Bft) NW 320 0 min 9,5 C 10,6 C 0,0 km/h (0 Bft)
18.10.2017 23:00 10,7 C 93 % 1012,0 hPa 0,0 mm 0,0 km/h (0 Bft) N 351 0 min 9,6 C 10,7 C 0,0 km/h (0 Bft)
18.10.2017 22:45 10,8 C 93 % 1012,0 hPa 0,0 mm 0,0 km/h (0 Bft) N 351 0 min 9,7 C 10,8 C 0,0 km/h (0 Bft)
18.10.2017 22:30 11,0 C 92 % 1011,9 hPa 0,0 mm 0,2 km/h (0 Bft) N 351 0 min 9,8 C 11,0 C 3,2 km/h (1 Bft)
18.10.2017 22:15 11,4 C 91 % 1011,9 hPa 0,0 mm 0,1 km/h (0 Bft) N 351 0 min 10,0 C 11,4 C 3,2 km/h (1 Bft)
18.10.2017 22:00 11,8 C 91 % 1011,9 hPa 0,0 mm 0,0 km/h (0 Bft) N 351 0 min 10,4 C 11,8 C 0,0 km/h (0 Bft)
18.10.2017 21:45 12,1 C 90 % 1011,8 hPa 0,0 mm 0,0 km/h (0 Bft) N 351 0 min 10,5 C 12,1 C 0,0 km/h (0 Bft)
18.10.2017 21:30 12,3 C 89 % 1011,8 hPa 0,0 mm 0,0 km/h (0 Bft) N 351 0 min 10,5 C 12,3 C 0,0 km/h (0 Bft)
18.10.2017 21:15 12,6 C 89 % 1011,7 hPa 0,0 mm 0,1 km/h (0 Bft) N 351 0 min 10,8 C 12,6 C 3,2 km/h (1 Bft)
18.10.2017 21:00 13,2 C 87 % 1011,7 hPa 0,0 mm 0,0 km/h (0 Bft) N 352 0 min 11,1 C 13,2 C 1,6 km/h (1 Bft)
18.10.2017 20:45 13,9 C 85 % 1011,6 hPa 0,0 mm 0,0 km/h (0 Bft) N 352 0 min 11,4 C 13,9 C 0,0 km/h (0 Bft)
18.10.2017 20:30 14,3 C 84 % 1011,6 hPa 0,0 mm 0,0 km/h (0 Bft) N 352 0 min 11,6 C 14,3 C 0,0 km/h (0 Bft)
18.10.2017 20:15 14,6 C 83 % 1011,5 hPa 0,0 mm 0,4 km/h (0 Bft) N 352 0 min 11,7 C 14,6 C 3,2 km/h (1 Bft)
18.10.2017 20:00 14,8 C 83 % 1011,5 hPa 0,0 mm 0,3 km/h (0 Bft) N 352 0 min 11,9 C 14,8 C 1,6 km/h (1 Bft)
18.10.2017 19:45 15,5 C 82 % 1011,4 hPa 0,0 mm 1,0 km/h (0 Bft) N 352 0 min 12,4 C 15,5 C 6,4 km/h (2 Bft)
18.10.2017 19:30 16,4 C 78 % 1011,3 hPa 0,0 mm 0,1 km/h (0 Bft) S-SO 156 0 min 12,6 C 16,4 C 3,2 km/h (1 Bft)
18.10.2017 19:15 16,9 C 73 % 1011,3 hPa 0,0 mm 0,0 km/h (0 Bft) S-SO 156 0 min 12,0 C 16,9 C 1,6 km/h (1 Bft)
18.10.2017 19:00 17,3 C 74 % 1011,2 hPa 0,0 mm 0,1 km/h (0 Bft) S-SO 156 0 min 12,6 C 17,3 C 3,2 km/h (1 Bft)
18.10.2017 18:45 17,9 C 73 % 1011,1 hPa 0,0 mm 0,3 km/h (0 Bft) O 96 0 min 13,0 C 17,9 C 4,8 km/h (1 Bft)
18.10.2017 18:30 18,5 C 70 % 1011,0 hPa 0,0 mm 1,7 km/h (1 Bft) O 96 0 min 12,9 C 18,5 C 6,4 km/h (2 Bft)
18.10.2017 18:15 19,1 C 72 % 1010,7 hPa 0,0 mm 0,0 km/h (0 Bft) N-NW 346 0 min 13,9 C 19,1 C 1,6 km/h (1 Bft)
18.10.2017 18:00 19,6 C 70 % 1010,6 hPa 0,0 mm 1,0 km/h (0 Bft) NW 310 0 min 14,0 C 19,6 C 4,8 km/h (1 Bft)
18.10.2017 17:45 20,0 C 67 % 1010,5 hPa 0,0 mm 0,4 km/h (0 Bft) NW 325 0 min 13,7 C 20,0 C 4,8 km/h (1 Bft)
18.10.2017 17:30 20,5 C 65 % 1010,5 hPa 0,0 mm 0,2 km/h (0 Bft) NW 309 0 min 13,7 C 20,5 C 3,2 km/h (1 Bft)
18.10.2017 17:15 20,8 C 63 % 1010,6 hPa 0,0 mm 0,1 km/h (0 Bft) N 358 15 min 13,5 C 20,8 C 3,2 km/h (1 Bft)
18.10.2017 17:00 21,2 C 61 % 1010,6 hPa 0,0 mm 0,5 km/h (0 Bft) NW 310 0 min 13,4 C 21,2 C 6,4 km/h (2 Bft)
18.10.2017 16:45 21,3 C 60 % 1010,6 hPa 0,0 mm 2,0 km/h (1 Bft) N-NW 329 15 min 13,2 C 21,3 C 6,4 km/h (2 Bft)
18.10.2017 16:30 21,6 C 59 % 1010,7 hPa 0,0 mm 1,5 km/h (1 Bft) W-NW 287 15 min 13,2 C 21,6 C 6,4 km/h (2 Bft)
18.10.2017 16:15 21,5 C 60 % 1010,7 hPa 0,0 mm 2,4 km/h (1 Bft) N-NW 343 15 min 13,4 C 21,5 C 8,0 km/h (2 Bft)
18.10.2017 16:00 21,3 C 61 % 1010,8 hPa 0,0 mm 3,1 km/h (1 Bft) N 6 15 min 13,5 C 21,3 C 9,7 km/h (2 Bft)
18.10.2017 15:45 21,2 C 60 % 1010,9 hPa 0,0 mm 4,3 km/h (1 Bft) N-NW 329 15 min 13,1 C 21,2 C 9,7 km/h (2 Bft)
18.10.2017 15:30 21,1 C 60 % 1010,9 hPa 0,0 mm 4,8 km/h (1 Bft) N-NO 13 15 min 13,0 C 21,1 C 14,5 km/h (3 Bft)
18.10.2017 15:15 21,2 C 61 % 1010,9 hPa 0,0 mm 2,8 km/h (1 Bft) W-NW 297 15 min 13,4 C 21,2 C 11,3 km/h (2 Bft)
18.10.2017 15:00 20,7 C 62 % 1011,2 hPa 0,0 mm 3,0 km/h (1 Bft) N-NW 331 15 min 13,2 C 20,7 C 11,3 km/h (2 Bft)
18.10.2017 14:45 20,6 C 63 % 1011,3 hPa 0,0 mm 2,6 km/h (1 Bft) W-NW 300 0 min 13,3 C 20,6 C 9,7 km/h (2 Bft)
18.10.2017 14:30 20,7 C 64 % 1011,4 hPa 0,0 mm 2,5 km/h (1 Bft) N-NW 332 15 min 13,6 C 20,7 C 8,0 km/h (2 Bft)
18.10.2017 14:15 20,4 C 65 % 1011,6 hPa 0,0 mm 2,5 km/h (1 Bft) NW 308 15 min 13,6 C 20,4 C 8,0 km/h (2 Bft)
18.10.2017 14:00 20,2 C 68 % 1011,8 hPa 0,0 mm 0,1 km/h (0 Bft) W 265 15 min 14,1 C 20,2 C 1,6 km/h (1 Bft)
18.10.2017 13:45 18,9 C 72 % 1011,9 hPa 0,0 mm 0,1 km/h (0 Bft) S 177 15 min 13,7 C 18,9 C 1,6 km/h (1 Bft)
18.10.2017 13:30 17,9 C 75 % 1012,1 hPa 0,0 mm 0,1 km/h (0 Bft) S 177 15 min 13,4 C 17,9 C 1,6 km/h (1 Bft)
18.10.2017 13:15 16,7 C 81 % 1012,4 hPa 0,0 mm 0,6 km/h (0 Bft) S 177 15 min 13,4 C 16,7 C 4,8 km/h (1 Bft)
18.10.2017 13:00 15,8 C 83 % 1012,6 hPa 0,0 mm 2,9 km/h (1 Bft) S 181 15 min 12,9 C 15,8 C 8,0 km/h (2 Bft)
18.10.2017 12:45 15,4 C 85 % 1012,6 hPa 0,0 mm 3,1 km/h (1 Bft) SO 145 15 min 12,9 C 15,4 C 8,0 km/h (2 Bft)
18.10.2017 12:30 14,5 C 87 % 1012,7 hPa 0,0 mm 3,4 km/h (1 Bft) S-SO 168 15 min 12,4 C 14,5 C 6,4 km/h (2 Bft)
18.10.2017 12:15 13,9 C 89 % 1012,8 hPa 0,0 mm 3,1 km/h (1 Bft) S-SO 168 15 min 12,1 C 13,9 C 8,0 km/h (2 Bft)
18.10.2017 12:00 13,6 C 93 % 1012,9 hPa 0,0 mm 3,6 km/h (1 Bft) SO 142 15 min 12,5 C 13,6 C 9,7 km/h (2 Bft)
18.10.2017 11:45 12,9 C 96 % 1012,9 hPa 0,0 mm 3,3 km/h (1 Bft) O-SO 107 15 min 12,3 C 12,9 C 6,4 km/h (2 Bft)
18.10.2017 11:30 12,5 C 97 % 1012,9 hPa 0,0 mm 1,0 km/h (0 Bft) SO 130 15 min 12,0 C 12,5 C 4,8 km/h (1 Bft)
18.10.2017 11:15 11,9 C 98 % 1013,1 hPa 0,0 mm 0,9 km/h (0 Bft) SO 146 15 min 11,6 C 11,9 C 4,8 km/h (1 Bft)
18.10.2017 11:00 11,5 C 98 % 1013,3 hPa 0,0 mm 0,1 km/h (0 Bft) NO 52 15 min 11,2 C 11,5 C 3,2 km/h (1 Bft)
18.10.2017 10:45 10,8 C 98 % 1013,3 hPa 0,0 mm 0,0 km/h (0 Bft) NO 52 15 min 10,5 C 10,8 C 1,6 km/h (1 Bft)
18.10.2017 10:30 10,2 C 98 % 1013,4 hPa 0,0 mm 0,1 km/h (0 Bft) NO 52 15 min 9,9 C 10,2 C 3,2 km/h (1 Bft)
18.10.2017 10:15 9,8 C 97 % 1013,3 hPa 0,0 mm 0,0 km/h (0 Bft) NW 315 0 min 9,3 C 9,8 C 0,0 km/h (0 Bft)
18.10.2017 10:00 9,4 C 97 % 1013,4 hPa 0,0 mm 0,0 km/h (0 Bft) NW 315 0 min 8,9 C 9,4 C 0,0 km/h (0 Bft)
18.10.2017 09:45 9,2 C 97 % 1013,5 hPa 0,0 mm 0,0 km/h (0 Bft) NW 315 0 min 8,7 C 9,2 C 0,0 km/h (0 Bft)
18.10.2017 09:30 9,2 C 97 % 1013,7 hPa 0,0 mm 0,0 km/h (0 Bft) NW 315 0 min 8,7 C 9,2 C 0,0 km/h (0 Bft)
18.10.2017 09:15 9,3 C 97 % 1013,8 hPa 0,0 mm 0,0 km/h (0 Bft) NW 315 0 min 8,8 C 9,3 C 0,0 km/h (0 Bft)
18.10.2017 09:00 9,3 C 97 % 1013,6 hPa 0,0 mm 0,0 km/h (0 Bft) NW 315 0 min 8,8 C 9,3 C 0,0 km/h (0 Bft)
18.10.2017 08:45 9,2 C 97 % 1013,7 hPa 0,0 mm 0,0 km/h (0 Bft) NW 315 0 min 8,7 C 9,2 C 0,0 km/h (0 Bft)
18.10.2017 08:30 9,2 C 97 % 1013,8 hPa 0,0 mm 0,0 km/h (0 Bft) NW 315 0 min 8,7 C 9,2 C 0,0 km/h (0 Bft)
18.10.2017 08:15 9,1 C 97 % 1013,9 hPa 0,0 mm 0,0 km/h (0 Bft) NW 315 0 min 8,6 C 9,1 C 0,0 km/h (0 Bft)
18.10.2017 08:00 8,9 C 97 % 1013,9 hPa 0,0 mm 0,0 km/h (0 Bft) NW 315 0 min 8,4 C 8,9 C 0,0 km/h (0 Bft)
18.10.2017 07:45 8,9 C 97 % 1014,0 hPa 0,0 mm 0,0 km/h (0 Bft) NW 315 0 min 8,4 C 8,9 C 0,0 km/h (0 Bft)
18.10.2017 07:30 8,9 C 97 % 1013,9 hPa 0,0 mm 0,0 km/h (0 Bft) NW 315 0 min 8,4 C 8,9 C 0,0 km/h (0 Bft)
18.10.2017 07:15 9,0 C 97 % 1013,9 hPa 0,0 mm 0,0 km/h (0 Bft) NW 315 0 min 8,5 C 9,0 C 0,0 km/h (0 Bft)
18.10.2017 07:00 9,0 C 97 % 1013,9 hPa 0,0 mm 0,0 km/h (0 Bft) NW 315 0 min 8,5 C 9,0 C 0,0 km/h (0 Bft)
18.10.2017 06:45 9,1 C 97 % 1014,1 hPa 0,0 mm 0,0 km/h (0 Bft) NW 315 0 min 8,6 C 9,1 C 0,0 km/h (0 Bft)
18.10.2017 06:30 9,2 C 97 % 1014,1 hPa 0,0 mm 0,0 km/h (0 Bft) NW 315 0 min 8,7 C 9,2 C 0,0 km/h (0 Bft)
18.10.2017 06:15 9,2 C 97 % 1014,2 hPa 0,0 mm 0,0 km/h (0 Bft) NW 315 0 min 8,7 C 9,2 C 0,0 km/h (0 Bft)
18.10.2017 06:00 9,2 C 97 % 1014,2 hPa 0,0 mm 0,1 km/h (0 Bft) NW 315 0 min 8,7 C 9,2 C 3,2 km/h (1 Bft)
18.10.2017 05:45 9,1 C 96 % 1014,2 hPa 0,0 mm 1,0 km/h (0 Bft) NW 315 0 min 8,5 C 9,1 C 4,8 km/h (1 Bft)
18.10.2017 05:30 9,3 C 96 % 1014,3 hPa 0,0 mm 0,7 km/h (0 Bft) N 351 0 min 8,7 C 9,3 C 4,8 km/h (1 Bft)
18.10.2017 05:15 9,7 C 96 % 1014,4 hPa 0,0 mm 0,1 km/h (0 Bft) N-NO 23 0 min 9,1 C 9,7 C 3,2 km/h (1 Bft)
18.10.2017 05:00 10,0 C 96 % 1014,5 hPa 0,0 mm 0,3 km/h (0 Bft) N-NO 23 0 min 9,4 C 10,0 C 4,8 km/h (1 Bft)
18.10.2017 04:45 10,1 C 96 % 1014,6 hPa 0,0 mm 0,0 km/h (0 Bft) N-NO 25 0 min 9,5 C 10,1 C 0,0 km/h (0 Bft)
18.10.2017 04:30 10,1 C 96 % 1014,7 hPa 0,0 mm 0,0 km/h (0 Bft) N-NO 25 0 min 9,5 C 10,1 C 0,0 km/h (0 Bft)
18.10.2017 04:15 10,2 C 96 % 1014,8 hPa 0,0 mm 0,0 km/h (0 Bft) N-NO 25 0 min 9,6 C 10,2 C 0,0 km/h (0 Bft)
18.10.2017 04:00 10,2 C 96 % 1014,9 hPa 0,0 mm 0,0 km/h (0 Bft) N-NO 25 0 min 9,6 C 10,2 C 0,0 km/h (0 Bft)
18.10.2017 03:45 10,1 C 96 % 1015,0 hPa 0,0 mm 0,0 km/h (0 Bft) N-NO 25 0 min 9,5 C 10,1 C 0,0 km/h (0 Bft)
18.10.2017 03:30 9,9 C 96 % 1015,1 hPa 0,0 mm 0,0 km/h (0 Bft) N-NO 25 0 min 9,3 C 9,9 C 0,0 km/h (0 Bft)
18.10.2017 03:15 10,0 C 96 % 1015,2 hPa 0,0 mm 0,0 km/h (0 Bft) N-NO 25 0 min 9,4 C 10,0 C 0,0 km/h (0 Bft)
18.10.2017 03:00 10,0 C 96 % 1015,4 hPa 0,0 mm 0,0 km/h (0 Bft) N-NO 25 0 min 9,4 C 10,0 C 0,0 km/h (0 Bft)
18.10.2017 02:45 9,9 C 95 % 1015,5 hPa 0,0 mm 0,0 km/h (0 Bft) N-NO 25 0 min 9,1 C 9,9 C 0,0 km/h (0 Bft)
18.10.2017 02:30 10,1 C 95 % 1015,5 hPa 0,0 mm 0,1 km/h (0 Bft) N-NO 25 0 min 9,3 C 10,1 C 3,2 km/h (1 Bft)
18.10.2017 02:15 10,4 C 94 % 1015,4 hPa 0,0 mm 0,6 km/h (0 Bft) N-NO 25 0 min 9,5 C 10,4 C 4,8 km/h (1 Bft)
18.10.2017 02:00 11,1 C 94 % 1015,5 hPa 0,0 mm 0,4 km/h (0 Bft) NO 40 0 min 10,2 C 11,1 C 3,2 km/h (1 Bft)
_ Min-Zeit 01:45 16:30 17:30 - 02:45 - - - 01:30 01:45 02:45
Minimum _ 8,7 C 59 % 1010,5 hPa - 0,0 km/h (0 Bft) - - - 7,9 C 8,7 C 0,0 km/h (0 Bft)
_ Max-Zeit 16:30 10:30 02:00 02:00 15:30 - - 10:30 14:00 16:30 15:30
Maximum _ 21,7 C 98 % 1015,5 hPa 0,0 mm 4,8 km/h
N-NO (1 Bft)
- - 15 min 14,1 C 21,6 C 14,5 km/h
NW (3 Bft)
Durchschnitt _ 13,1 C 87 % 1012,8 hPa #0,0 mm 0,6 km/h (0 Bft) N-NW - #0 min. 10,7 C 13,1 C 3,0 km/h (1 Bft)